createdAt,value
2018-04-02T00:00:44.098Z,5.40
2018-04-02T00:01:47.306Z,5.50
2018-04-02T00:02:51.292Z,5.50
2018-04-02T00:03:54.592Z,5.50
2018-04-02T00:04:58.610Z,5.40
2018-04-02T00:06:02.641Z,5.40
2018-04-02T00:07:05.838Z,5.40
2018-04-02T00:08:09.060Z,5.30
2018-04-02T00:09:13.064Z,5.30
2018-04-02T00:10:17.032Z,5.30
2018-04-02T00:11:20.260Z,5.30
2018-04-02T00:12:23.463Z,5.30
2018-04-02T00:13:26.668Z,5.30
2018-04-02T00:14:29.881Z,5.20
2018-04-02T00:15:33.856Z,5.30
2018-04-02T00:16:37.080Z,5.30
2018-04-02T00:17:40.291Z,5.30
2018-04-02T00:18:43.548Z,5.30
2018-04-02T00:19:46.756Z,5.30
2018-04-02T00:20:49.965Z,5.30
2018-04-02T00:21:53.168Z,5.30
2018-04-02T00:22:57.220Z,5.30
2018-04-02T00:24:00.435Z,5.20
2018-04-02T00:25:03.711Z,5.30
2018-04-02T00:26:06.893Z,5.30
2018-04-02T00:27:10.150Z,5.20
2018-04-02T00:28:13.397Z,5.30
2018-04-02T00:29:16.617Z,5.30
2018-04-02T00:30:19.822Z,5.30
2018-04-02T00:31:23.045Z,5.20
2018-04-02T00:32:26.234Z,5.30
2018-04-02T00:33:29.513Z,5.30
2018-04-02T00:34:32.706Z,5.30
2018-04-02T00:35:35.915Z,5.30
2018-04-02T00:36:39.113Z,5.30
2018-04-02T00:37:42.391Z,5.30
2018-04-02T00:38:45.576Z,5.30
2018-04-02T00:39:48.769Z,5.30
2018-04-02T00:40:52.105Z,5.40
2018-04-02T00:41:55.376Z,5.40
2018-04-02T00:42:59.334Z,5.40
2018-04-02T00:44:02.547Z,5.40
2018-04-02T00:45:05.741Z,5.50
2018-04-02T00:46:09.028Z,5.50
2018-04-02T00:47:12.270Z,5.40
2018-04-02T00:48:15.467Z,5.30
2018-04-02T00:49:18.704Z,5.30
2018-04-02T00:50:21.942Z,5.20
2018-04-02T00:51:25.947Z,5.20
2018-04-02T00:52:29.913Z,5.20
2018-04-02T00:53:33.157Z,5.20
2018-04-02T00:54:36.374Z,5.20
2018-04-02T00:55:39.602Z,5.30
2018-04-02T00:56:43.581Z,5.20
2018-04-02T00:57:46.793Z,5.20
2018-04-02T00:58:49.996Z,5.20
2018-04-02T00:59:53.213Z,5.30
2018-04-02T01:00:56.531Z,5.30
2018-04-02T01:02:00.525Z,5.30
2018-04-02T01:03:04.499Z,5.30
2018-04-02T01:04:07.722Z,5.30
2018-04-02T01:05:11.689Z,5.30
2018-04-02T01:06:14.906Z,5.40
2018-04-02T01:07:18.179Z,5.50
2018-04-02T01:08:22.177Z,5.30
2018-04-02T01:09:26.153Z,5.30
2018-04-02T01:10:29.354Z,5.30
2018-04-02T01:11:33.326Z,5.30
2018-04-02T01:12:36.540Z,5.30
2018-04-02T01:13:40.573Z,5.30
2018-04-02T01:14:43.788Z,5.30
2018-04-02T01:15:47.037Z,5.30
2018-04-02T01:16:50.292Z,5.20
2018-04-02T01:17:54.273Z,5.30
2018-04-02T01:18:57.490Z,5.20
2018-04-02T01:20:01.492Z,5.30
2018-04-02T01:21:04.705Z,5.20
2018-04-02T01:22:07.919Z,5.20
2018-04-02T01:23:11.128Z,5.30
2018-04-02T01:24:15.089Z,5.30
2018-04-02T01:25:18.422Z,5.30
2018-04-02T01:26:22.407Z,5.30
2018-04-02T01:27:25.598Z,5.30
2018-04-02T01:28:29.580Z,5.20
2018-04-02T01:29:32.794Z,5.20
2018-04-02T01:30:36.021Z,5.20
2018-04-02T01:31:39.230Z,5.30
2018-04-02T01:32:42.437Z,5.30
2018-04-02T01:33:45.713Z,5.30
2018-04-02T01:34:49.726Z,5.40
2018-04-02T01:35:52.880Z,5.30
2018-04-02T01:36:56.863Z,5.50
2018-04-02T01:38:00.059Z,5.40
2018-04-02T01:39:04.052Z,5.40
2018-04-02T01:40:07.260Z,5.40
2018-04-02T01:41:11.228Z,5.40
2018-04-02T01:42:14.437Z,5.40
2018-04-02T01:43:18.416Z,5.10
2018-04-02T01:44:21.628Z,5.10
2018-04-02T01:45:25.613Z,5.10
2018-04-02T01:46:29.582Z,5.00
2018-04-02T01:47:32.812Z,5.10
2018-04-02T01:48:36.010Z,5.10
2018-04-02T01:49:39.326Z,5.00
2018-04-02T01:50:42.803Z,5.00
2018-04-02T01:51:45.969Z,5.00
2018-04-02T01:52:49.200Z,5.00
2018-04-02T01:53:52.385Z,5.00
2018-04-02T01:54:55.596Z,5.00
2018-04-02T01:55:59.568Z,4.90
2018-04-02T01:57:02.765Z,4.90
2018-04-02T01:58:06.789Z,4.80
2018-04-02T01:59:10.781Z,4.90
2018-04-02T02:00:13.980Z,4.80
2018-04-02T02:01:17.253Z,4.90
2018-04-02T02:02:20.575Z,4.90
2018-04-02T02:03:23.758Z,4.80
2018-04-02T02:04:26.982Z,4.80
2018-04-02T02:05:30.958Z,4.80
2018-04-02T02:06:34.167Z,4.80
2018-04-02T02:07:38.140Z,4.70
2018-04-02T02:08:41.354Z,4.70
2018-04-02T02:09:45.315Z,4.60
2018-04-02T02:10:48.516Z,4.60
2018-04-02T02:11:52.488Z,4.60
2018-04-02T02:12:55.694Z,4.60
2018-04-02T02:13:58.897Z,4.60
2018-04-02T02:15:02.912Z,4.60
2018-04-02T02:16:06.116Z,4.60
2018-04-02T02:17:09.320Z,4.60
2018-04-02T02:18:12.532Z,4.60
2018-04-02T02:19:16.509Z,4.50
2018-04-02T02:20:19.730Z,4.50
2018-04-02T02:21:23.684Z,4.50
2018-04-02T02:22:26.896Z,4.50
2018-04-02T02:23:30.892Z,4.50
2018-04-02T02:24:34.872Z,4.50
2018-04-02T02:25:38.087Z,4.50
2018-04-02T02:26:42.069Z,4.50
2018-04-02T02:27:45.257Z,4.50
2018-04-02T02:28:49.274Z,4.50
2018-04-02T02:29:52.479Z,4.50
2018-04-02T02:30:55.701Z,4.50
2018-04-02T02:31:58.913Z,4.50
2018-04-02T02:33:02.929Z,4.50
2018-04-02T02:34:06.153Z,4.50
2018-04-02T02:35:09.359Z,4.50
2018-04-02T02:36:12.553Z,4.50
2018-04-02T02:37:16.528Z,4.50
2018-04-02T02:38:19.758Z,4.50
2018-04-02T02:39:23.771Z,4.50
2018-04-02T02:40:26.987Z,4.50
2018-04-02T02:41:30.199Z,4.50
2018-04-02T02:42:33.510Z,4.50
2018-04-02T02:43:37.489Z,4.40
2018-04-02T02:44:41.461Z,4.40
2018-04-02T02:45:44.666Z,4.40
2018-04-02T02:46:47.875Z,4.40
2018-04-02T02:47:51.080Z,4.40
2018-04-02T02:48:54.296Z,4.40
2018-04-02T02:49:57.506Z,4.40
2018-04-02T02:51:01.479Z,4.40
2018-04-02T02:52:04.697Z,4.40
2018-04-02T02:53:08.674Z,4.50
2018-04-02T02:54:11.866Z,4.50
2018-04-02T02:55:15.837Z,4.50
2018-04-02T02:56:19.042Z,4.50
2018-04-02T02:57:22.252Z,4.40
2018-04-02T02:58:26.343Z,4.40
2018-04-02T02:59:30.317Z,4.30
2018-04-02T03:00:33.622Z,4.30
2018-04-02T03:01:37.659Z,4.40
2018-04-02T03:02:40.855Z,4.40
2018-04-02T03:03:44.084Z,4.40
2018-04-02T03:04:48.150Z,4.40
2018-04-02T03:05:51.412Z,4.40
2018-04-02T03:06:54.616Z,4.40
2018-04-02T03:07:57.810Z,4.40
2018-04-02T03:09:01.013Z,4.40
2018-04-02T03:10:04.222Z,4.40
2018-04-02T03:11:07.429Z,4.40
2018-04-02T03:12:10.644Z,4.30
2018-04-02T03:13:13.864Z,4.30
2018-04-02T03:14:17.127Z,4.30
2018-04-02T03:15:20.289Z,4.40
2018-04-02T03:16:23.513Z,4.40
2018-04-02T03:17:26.713Z,4.40
2018-04-02T03:18:29.929Z,4.30
2018-04-02T03:19:33.149Z,4.30
2018-04-02T03:20:37.123Z,4.20
2018-04-02T03:21:40.426Z,4.20
2018-04-02T03:22:44.394Z,4.30
2018-04-02T03:23:47.610Z,4.20
2018-04-02T03:24:52.298Z,4.20
2018-04-02T03:25:55.497Z,4.20
2018-04-02T03:26:58.707Z,4.20
2018-04-02T03:28:01.898Z,4.20
2018-04-02T03:29:05.126Z,4.20
2018-04-02T03:30:08.328Z,4.20
2018-04-02T03:31:11.564Z,4.20
2018-04-02T03:32:14.745Z,4.20
2018-04-02T03:33:17.951Z,4.30
2018-04-02T03:34:21.153Z,4.30
2018-04-02T03:35:25.179Z,4.30
2018-04-02T03:36:28.378Z,4.30
2018-04-02T03:37:31.603Z,4.30
2018-04-02T03:38:34.797Z,4.30
2018-04-02T03:39:38.004Z,4.50
2018-04-02T03:40:41.988Z,4.50
2018-04-02T03:41:45.453Z,4.50
2018-04-02T03:42:48.649Z,4.50
2018-04-02T03:43:51.968Z,4.40
2018-04-02T03:44:55.944Z,4.40
2018-04-02T03:45:59.935Z,4.40
2018-04-02T03:47:03.154Z,4.40
2018-04-02T03:48:06.363Z,4.40
2018-04-02T03:49:09.665Z,4.40
2018-04-02T03:50:12.903Z,4.30
2018-04-02T03:51:16.089Z,4.30
2018-04-02T03:52:19.305Z,4.40
2018-04-02T03:53:22.510Z,4.30
2018-04-02T03:54:25.700Z,4.30
2018-04-02T03:55:28.904Z,4.40
2018-04-02T03:56:32.144Z,4.40
2018-04-02T03:57:35.341Z,4.40
2018-04-02T03:58:38.546Z,4.30
2018-04-02T03:59:42.532Z,4.40
2018-04-02T04:00:45.731Z,4.40
2018-04-02T04:01:49.801Z,4.30
2018-04-02T04:02:53.006Z,4.30
2018-04-02T04:03:56.976Z,4.40
2018-04-02T04:05:00.188Z,4.40
2018-04-02T04:06:04.175Z,4.30
2018-04-02T04:07:07.357Z,4.30
2018-04-02T04:08:10.590Z,4.30
2018-04-02T04:09:13.803Z,4.30
2018-04-02T04:10:17.017Z,4.40
2018-04-02T04:11:21.034Z,4.40
2018-04-02T04:12:24.341Z,4.40
2018-04-02T04:13:27.551Z,4.40
2018-04-02T04:14:30.756Z,4.50
2018-04-02T04:15:33.988Z,4.50
2018-04-02T04:16:37.205Z,4.50
2018-04-02T04:17:40.406Z,4.60
2018-04-02T04:18:44.399Z,4.60
2018-04-02T04:19:47.586Z,4.60
2018-04-02T04:20:51.605Z,4.60
2018-04-02T04:21:54.825Z,4.60
2018-04-02T04:22:58.028Z,4.50
2018-04-02T04:24:01.292Z,4.60
2018-04-02T04:25:04.497Z,4.50
2018-04-02T04:26:07.729Z,4.40
2018-04-02T04:27:10.934Z,4.40
2018-04-02T04:28:14.135Z,4.40
2018-04-02T04:29:17.349Z,4.50
2018-04-02T04:30:20.555Z,4.60
2018-04-02T04:31:23.794Z,4.60
2018-04-02T04:32:26.993Z,4.60
2018-04-02T04:33:30.990Z,4.60
2018-04-02T04:34:34.192Z,4.60
2018-04-02T04:35:38.166Z,4.70
2018-04-02T04:36:41.385Z,4.70
2018-04-02T04:37:45.365Z,4.80
2018-04-02T04:38:49.412Z,4.80
2018-04-02T04:39:52.625Z,4.80
2018-04-02T04:40:55.856Z,4.90
2018-04-02T04:41:59.046Z,4.90
2018-04-02T04:43:02.272Z,4.90
2018-04-02T04:44:05.471Z,4.90
2018-04-02T04:45:08.703Z,4.90
2018-04-02T04:46:11.913Z,4.90
2018-04-02T04:47:15.116Z,4.90
2018-04-02T04:48:18.345Z,4.80
2018-04-02T04:49:21.558Z,4.90
2018-04-02T04:50:24.760Z,4.90
2018-04-02T04:51:28.066Z,4.90
2018-04-02T04:52:32.084Z,4.90
2018-04-02T04:53:35.281Z,4.90
2018-04-02T04:54:38.490Z,5.00
2018-04-02T04:55:41.693Z,5.00
2018-04-02T04:56:44.900Z,5.00
2018-04-02T04:57:48.868Z,5.00
2018-04-02T04:58:52.122Z,5.00
2018-04-02T04:59:55.355Z,5.00
2018-04-02T05:00:59.468Z,5.00
2018-04-02T05:02:02.685Z,5.00
2018-04-02T05:03:05.898Z,5.00
2018-04-02T05:04:09.104Z,5.00
2018-04-02T05:05:12.340Z,5.00
2018-04-02T05:06:15.538Z,5.00
2018-04-02T05:07:18.747Z,5.00
2018-04-02T05:08:22.008Z,5.00
2018-04-02T05:09:25.208Z,4.90
2018-04-02T05:10:29.186Z,4.90
2018-04-02T05:11:32.396Z,4.90
2018-04-02T05:12:36.370Z,4.90
2018-04-02T05:13:39.562Z,4.90
2018-04-02T05:14:42.786Z,4.90
2018-04-02T05:15:45.988Z,4.90
2018-04-02T05:16:49.180Z,4.90
2018-04-02T05:17:52.392Z,4.90
2018-04-02T05:18:55.591Z,4.90
2018-04-02T05:19:59.570Z,4.90
2018-04-02T05:21:02.782Z,4.90
2018-04-02T05:22:06.770Z,4.90
2018-04-02T05:23:10.750Z,4.80
2018-04-02T05:24:13.961Z,4.80
2018-04-02T05:25:17.156Z,4.80
2018-04-02T05:26:21.131Z,4.90
2018-04-02T05:27:24.327Z,4.90
2018-04-02T05:28:28.316Z,5.00
2018-04-02T05:29:31.520Z,5.00
2018-04-02T05:30:34.761Z,5.00
2018-04-02T05:31:37.933Z,4.90
2018-04-02T05:32:41.129Z,4.90
2018-04-02T05:33:44.454Z,4.90
2018-04-02T05:34:48.433Z,4.80
2018-04-02T05:35:52.651Z,4.80
2018-04-02T05:36:56.671Z,4.80
2018-04-02T05:37:59.890Z,4.80
2018-04-02T05:39:03.135Z,4.70
2018-04-02T05:40:06.331Z,4.80
2018-04-02T05:41:09.547Z,4.70
2018-04-02T05:42:12.788Z,4.80
2018-04-02T05:43:16.011Z,4.80
2018-04-02T05:44:19.209Z,4.80
2018-04-02T05:45:22.414Z,4.80
2018-04-02T05:46:25.620Z,4.80
2018-04-02T05:47:28.845Z,4.80
2018-04-02T05:48:32.044Z,4.80
2018-04-02T05:49:36.018Z,4.90
2018-04-02T05:50:39.256Z,4.90
2018-04-02T05:51:42.463Z,4.90
2018-04-02T05:52:45.686Z,4.90
2018-04-02T05:53:48.911Z,4.80
2018-04-02T05:54:52.109Z,4.80
2018-04-02T05:55:55.339Z,4.80
2018-04-02T05:56:59.328Z,4.80
2018-04-02T05:58:02.536Z,4.80
2018-04-02T05:59:06.502Z,4.80
2018-04-02T06:00:09.741Z,4.80
2018-04-02T06:01:12.954Z,4.80
2018-04-02T06:02:16.174Z,4.90
2018-04-02T06:03:20.171Z,4.80
2018-04-02T06:04:23.391Z,4.80
2018-04-02T06:05:26.639Z,4.80
2018-04-02T06:06:30.656Z,4.80
2018-04-02T06:07:33.861Z,4.80
2018-04-02T06:08:37.049Z,4.80
2018-04-02T06:09:40.288Z,4.80
2018-04-02T06:10:44.062Z,4.80
2018-04-02T06:11:47.272Z,4.80
2018-04-02T06:12:51.234Z,4.90
2018-04-02T06:13:54.524Z,4.90
2018-04-02T06:14:57.753Z,4.90
2018-04-02T06:16:00.953Z,5.00
2018-04-02T06:17:04.169Z,5.00
2018-04-02T06:18:07.380Z,5.10
2018-04-02T06:19:10.589Z,5.20
2018-04-02T06:20:13.807Z,5.20
2018-04-02T06:21:17.028Z,5.20
2018-04-02T06:22:20.238Z,5.20
2018-04-02T06:23:23.481Z,5.20
2018-04-02T06:24:27.462Z,5.20
2018-04-02T06:25:30.672Z,5.20
2018-04-02T06:26:34.675Z,5.30
2018-04-02T06:27:38.677Z,5.30
2018-04-02T06:28:41.882Z,5.30
2018-04-02T06:29:45.086Z,5.30
2018-04-02T06:30:48.295Z,5.30
2018-04-02T06:31:51.509Z,5.40
2018-04-02T06:32:54.766Z,5.40
2018-04-02T06:33:57.964Z,5.40
2018-04-02T06:35:01.191Z,5.40
2018-04-02T06:36:05.169Z,5.50
2018-04-02T06:37:08.423Z,5.50
2018-04-02T06:38:11.591Z,5.50
2018-04-02T06:39:14.857Z,5.50
2018-04-02T06:40:18.139Z,5.50
2018-04-02T06:41:21.338Z,5.50
2018-04-02T06:42:24.550Z,5.50
2018-04-02T06:43:27.755Z,5.50
2018-04-02T06:44:30.964Z,5.60
2018-04-02T06:45:34.170Z,5.60
2018-04-02T06:46:37.371Z,5.60
2018-04-02T06:47:40.573Z,5.60
2018-04-02T06:48:43.780Z,5.60
2018-04-02T06:49:47.758Z,5.60
2018-04-02T06:50:50.977Z,5.60
2018-04-02T06:51:54.181Z,5.60
2018-04-02T06:52:57.382Z,5.60
2018-04-02T06:54:00.578Z,5.60
2018-04-02T06:55:03.782Z,5.70
2018-04-02T06:56:07.782Z,5.70
2018-04-02T06:57:11.753Z,5.70
2018-04-02T06:58:14.964Z,5.70
2018-04-02T06:59:18.175Z,5.80
2018-04-02T07:00:21.432Z,5.80
2018-04-02T07:01:25.414Z,5.90
2018-04-02T07:02:28.631Z,5.90
2018-04-02T07:03:31.840Z,6.00
2018-04-02T07:04:35.059Z,6.00
2018-04-02T07:05:38.306Z,6.00
2018-04-02T07:06:41.538Z,6.10
2018-04-02T07:07:44.792Z,6.10
2018-04-02T07:08:48.004Z,6.10
2018-04-02T07:09:52.025Z,6.20
2018-04-02T07:10:56.029Z,6.20
2018-04-02T07:11:59.216Z,6.10
2018-04-02T07:13:02.497Z,6.20
2018-04-02T07:14:05.704Z,6.20
2018-04-02T07:15:08.918Z,6.30
2018-04-02T07:16:12.104Z,6.30
2018-04-02T07:17:15.310Z,6.30
2018-04-02T07:18:19.305Z,6.40
2018-04-02T07:19:24.715Z,6.50
2018-04-02T07:20:28.157Z,6.50
2018-04-02T07:21:31.402Z,6.50
2018-04-02T07:22:34.589Z,6.50
2018-04-02T07:23:38.564Z,6.60
2018-04-02T07:24:41.789Z,6.60
2018-04-02T07:25:45.020Z,6.70
2018-04-02T07:26:48.231Z,6.70
2018-04-02T07:27:51.443Z,6.70
2018-04-02T07:28:54.636Z,6.60
2018-04-02T07:29:57.850Z,6.70
2018-04-02T07:31:01.081Z,6.60
2018-04-02T07:32:05.041Z,6.70
2018-04-02T07:33:08.275Z,6.70
2018-04-02T07:34:11.481Z,6.80
2018-04-02T07:35:14.703Z,6.70
2018-04-02T07:36:17.929Z,6.80
2018-04-02T07:37:21.167Z,6.80
2018-04-02T07:38:24.363Z,6.90
2018-04-02T07:39:28.341Z,7.00
2018-04-02T07:40:31.546Z,7.00
2018-04-02T07:41:35.512Z,7.10
2018-04-02T07:42:38.743Z,7.00
2018-04-02T07:43:42.697Z,7.20
2018-04-02T07:44:45.912Z,7.20
2018-04-02T07:45:49.160Z,7.30
2018-04-02T07:46:52.371Z,7.40
2018-04-02T07:47:55.616Z,7.40
2018-04-02T07:48:58.834Z,7.40
2018-04-02T07:50:02.071Z,7.40
2018-04-02T07:51:05.303Z,7.40
2018-04-02T07:52:09.279Z,7.40
2018-04-02T07:53:12.528Z,7.40
2018-04-02T07:54:15.743Z,7.40
2018-04-02T07:55:18.963Z,7.40
2018-04-02T07:56:22.930Z,7.50
2018-04-02T07:57:26.914Z,7.50
2018-04-02T07:58:30.155Z,7.50
2018-04-02T07:59:34.135Z,7.60
2018-04-02T08:00:37.348Z,7.60
2018-04-02T08:01:40.558Z,7.50
2018-04-02T08:02:43.798Z,7.50
2018-04-02T08:03:47.762Z,7.50
2018-04-02T08:04:50.976Z,7.50
2018-04-02T08:05:54.982Z,7.50
2018-04-02T08:06:58.198Z,7.40
2018-04-02T08:08:01.401Z,7.50
2018-04-02T08:09:04.609Z,7.50
2018-04-02T08:10:07.819Z,7.40
2018-04-02T08:11:11.039Z,7.40
2018-04-02T08:12:14.232Z,7.50
2018-04-02T08:13:17.450Z,7.50
2018-04-02T08:14:21.442Z,7.70
2018-04-02T08:15:24.637Z,7.70
2018-04-02T08:16:28.617Z,7.80
2018-04-02T08:17:31.842Z,7.80
2018-04-02T08:18:35.053Z,7.80
2018-04-02T08:19:38.253Z,7.80
2018-04-02T08:20:41.474Z,7.80
2018-04-02T08:21:44.699Z,7.80
2018-04-02T08:22:47.910Z,7.80
2018-04-02T08:23:51.140Z,7.80
2018-04-02T08:24:54.357Z,7.80
2018-04-02T08:25:57.580Z,7.90
2018-04-02T08:27:01.569Z,7.90
2018-04-02T08:28:05.544Z,7.90
2018-04-02T08:29:08.788Z,7.90
2018-04-02T08:30:11.972Z,7.90
2018-04-02T08:31:15.185Z,8.00
2018-04-02T08:32:18.393Z,8.00
2018-04-02T08:33:22.368Z,8.00
2018-04-02T08:34:25.568Z,8.00
2018-04-02T08:35:28.894Z,8.00
2018-04-02T08:36:32.151Z,8.10
2018-04-02T08:37:35.345Z,8.10
2018-04-02T08:38:39.382Z,8.20
2018-04-02T08:39:42.507Z,8.20
2018-04-02T08:40:45.744Z,8.20
2018-04-02T08:41:49.017Z,8.20
2018-04-02T08:42:52.232Z,8.20
2018-04-02T08:43:55.412Z,8.30
2018-04-02T08:44:58.626Z,8.30
2018-04-02T08:46:02.601Z,8.40
2018-04-02T08:47:05.804Z,8.40
2018-04-02T08:48:09.155Z,8.40
2018-04-02T08:49:12.311Z,8.40
2018-04-02T08:50:15.514Z,8.40
2018-04-02T08:51:18.731Z,8.40
2018-04-02T08:52:21.928Z,8.30
2018-04-02T08:53:25.892Z,8.20
2018-04-02T08:54:29.099Z,8.10
2018-04-02T08:55:32.319Z,8.20
2018-04-02T08:56:35.544Z,8.20
2018-04-02T08:57:38.751Z,8.30
2018-04-02T08:58:41.956Z,8.30
2018-04-02T08:59:45.162Z,8.40
2018-04-02T09:00:48.367Z,8.50
2018-04-02T09:01:51.575Z,8.50
2018-04-02T09:02:55.591Z,8.50
2018-04-02T09:03:58.866Z,8.50
2018-04-02T09:05:02.840Z,8.70
2018-04-02T09:06:06.062Z,8.60
2018-04-02T09:07:09.274Z,8.70
2018-04-02T09:08:12.528Z,8.70
2018-04-02T09:09:16.489Z,8.80
2018-04-02T09:10:19.694Z,8.80
2018-04-02T09:11:23.665Z,8.80
2018-04-02T09:12:26.882Z,8.80
2018-04-02T09:13:30.874Z,8.90
2018-04-02T09:14:34.182Z,8.90
2018-04-02T09:15:38.144Z,8.90
2018-04-02T09:16:41.410Z,8.90
2018-04-02T09:17:44.588Z,8.80
2018-04-02T09:18:47.818Z,9.00
2018-04-02T09:19:51.791Z,8.90
2018-04-02T09:20:55.104Z,8.90
2018-04-02T09:21:59.058Z,9.10
2018-04-02T09:23:02.259Z,9.10
2018-04-02T09:24:06.232Z,9.30
2018-04-02T09:25:09.431Z,9.20
2018-04-02T09:26:12.637Z,9.20
2018-04-02T09:27:15.857Z,9.20
2018-04-02T09:28:19.040Z,9.00
2018-04-02T09:29:22.242Z,8.80
2018-04-02T09:30:25.443Z,8.80
2018-04-02T09:31:28.636Z,8.70
2018-04-02T09:32:31.960Z,8.80
2018-04-02T09:33:35.143Z,9.00
2018-04-02T09:34:38.345Z,9.10
2018-04-02T09:35:41.587Z,9.10
2018-04-02T09:36:45.662Z,9.20
2018-04-02T09:37:48.831Z,9.20
2018-04-02T09:38:52.039Z,9.30
2018-04-02T09:39:55.246Z,9.30
2018-04-02T09:40:58.455Z,9.40
2018-04-02T09:42:01.660Z,9.50
2018-04-02T09:43:04.872Z,9.40
2018-04-02T09:44:08.110Z,9.50
2018-04-02T09:45:11.339Z,9.50
2018-04-02T09:46:15.311Z,9.60
2018-04-02T09:47:18.516Z,9.50
2018-04-02T09:48:22.489Z,9.60
2018-04-02T09:49:25.697Z,9.50
2018-04-02T09:50:28.916Z,9.50
2018-04-02T09:51:32.148Z,9.60
2018-04-02T09:52:35.345Z,9.60
2018-04-02T09:53:39.329Z,9.70
2018-04-02T09:54:42.560Z,9.70
2018-04-02T09:55:46.524Z,9.90
2018-04-02T09:56:50.520Z,10.00
2018-04-02T09:57:53.733Z,10.00
2018-04-02T09:58:57.826Z,10.10
2018-04-02T10:00:01.847Z,10.10
2018-04-02T10:01:05.071Z,10.10
2018-04-02T10:02:13.327Z,10.10
2018-04-02T10:03:16.565Z,10.10
2018-04-02T10:04:19.841Z,10.20
2018-04-02T10:05:23.022Z,10.20
2018-04-02T10:06:26.225Z,10.10
2018-04-02T10:07:29.437Z,10.10
2018-04-02T10:08:32.650Z,10.10
2018-04-02T10:09:35.844Z,10.20
2018-04-02T10:10:39.075Z,10.10
2018-04-02T10:11:42.313Z,10.20
2018-04-02T10:12:45.534Z,10.40
2018-04-02T10:13:49.523Z,10.40
2018-04-02T10:14:52.733Z,10.30
2018-04-02T10:15:55.955Z,10.40
2018-04-02T10:16:59.172Z,10.40
2018-04-02T10:18:02.397Z,10.30
2018-04-02T10:19:05.611Z,10.30
2018-04-02T10:20:08.827Z,10.20
2018-04-02T10:21:12.836Z,10.30
2018-04-02T10:22:16.795Z,10.30
2018-04-02T10:23:20.011Z,10.30
2018-04-02T10:24:23.981Z,10.40
2018-04-02T10:25:27.216Z,10.40
2018-04-02T10:26:30.436Z,10.50
2018-04-02T10:27:33.770Z,10.50
2018-04-02T10:28:37.772Z,10.70
2018-04-02T10:29:41.098Z,10.70
2018-04-02T10:30:45.023Z,10.90
2018-04-02T10:31:48.242Z,10.90
2018-04-02T10:32:51.540Z,10.90
2018-04-02T10:33:54.767Z,10.80
2018-04-02T10:34:58.058Z,10.80
2018-04-02T10:36:01.258Z,10.80
2018-04-02T10:37:05.266Z,11.00
2018-04-02T10:38:09.246Z,11.00
2018-04-02T10:39:13.227Z,11.20
2018-04-02T10:40:16.437Z,11.20
2018-04-02T10:41:20.454Z,11.30
2018-04-02T10:42:24.455Z,11.30
2018-04-02T10:43:28.444Z,11.20
2018-04-02T10:44:32.417Z,11.30
2018-04-02T10:45:36.396Z,11.30
2018-04-02T10:46:39.614Z,11.30
2018-04-02T10:47:43.590Z,11.30
2018-04-02T10:48:46.802Z,11.30
2018-04-02T10:49:50.769Z,11.30
2018-04-02T10:50:53.978Z,11.30
2018-04-02T10:51:57.951Z,11.20
2018-04-02T10:53:01.156Z,11.20
2018-04-02T10:54:04.368Z,11.20
2018-04-02T10:55:07.579Z,11.30
2018-04-02T10:56:10.791Z,11.40
2018-04-02T10:57:14.017Z,11.40
2018-04-02T10:58:18.068Z,11.50
2018-04-02T10:59:21.249Z,11.50
2018-04-02T11:00:24.511Z,11.60
2018-04-02T11:01:27.770Z,11.60
2018-04-02T11:02:30.988Z,11.50
2018-04-02T11:03:34.229Z,11.50
2018-04-02T11:04:38.245Z,11.60
2018-04-02T11:05:41.502Z,11.60
2018-04-02T11:06:44.670Z,11.70
2018-04-02T11:07:47.943Z,11.60
2018-04-02T11:08:51.921Z,11.70
2018-04-02T11:09:55.144Z,11.70
2018-04-02T11:10:59.131Z,11.80
2018-04-02T11:12:02.473Z,11.70
2018-04-02T11:13:05.702Z,11.90
2018-04-02T11:14:08.969Z,11.90
2018-04-02T11:15:12.161Z,12.00
2018-04-02T11:16:15.362Z,12.10
2018-04-02T11:17:19.334Z,12.10
2018-04-02T11:18:22.562Z,12.10
2018-04-02T11:19:25.776Z,12.10
2018-04-02T11:20:29.001Z,12.10
2018-04-02T11:21:32.977Z,12.20
2018-04-02T11:22:36.192Z,12.10
2018-04-02T11:23:40.973Z,12.30
2018-04-02T11:24:44.156Z,12.20
2018-04-02T11:25:47.401Z,12.30
2018-04-02T11:26:51.372Z,12.40
2018-04-02T11:27:54.589Z,12.50
2018-04-02T11:28:57.867Z,12.50
2018-04-02T11:30:01.016Z,12.60
2018-04-02T11:31:05.006Z,12.70
2018-04-02T11:32:09.745Z,12.70
2018-04-02T11:33:13.747Z,12.60
2018-04-02T11:34:17.749Z,12.60
2018-04-02T11:35:21.730Z,12.70
2018-04-02T11:36:25.713Z,12.70
2018-04-02T11:37:28.983Z,12.70
2018-04-02T11:38:32.204Z,12.70
2018-04-02T11:39:36.218Z,13.00
2018-04-02T11:40:40.191Z,13.10
2018-04-02T11:41:44.178Z,13.10
2018-04-02T11:42:47.397Z,13.10
2018-04-02T11:43:51.384Z,13.10
2018-04-02T11:44:55.384Z,13.10
2018-04-02T11:45:58.591Z,13.10
2018-04-02T11:47:02.571Z,13.30
2018-04-02T11:48:05.821Z,13.20
2018-04-02T11:49:09.016Z,13.30
2018-04-02T11:50:12.235Z,13.40
2018-04-02T11:51:16.243Z,13.40
2018-04-02T11:52:20.208Z,13.50
2018-04-02T11:53:24.192Z,13.50
2018-04-02T11:54:27.415Z,13.50
2018-04-02T11:55:31.436Z,13.50
2018-04-02T11:56:34.660Z,13.50
2018-04-02T11:57:37.866Z,13.40
2018-04-02T11:58:41.171Z,13.40
2018-04-02T11:59:45.150Z,13.40
2018-04-02T12:00:48.375Z,13.40
2018-04-02T12:01:51.594Z,13.40
2018-04-02T12:02:54.837Z,13.40
2018-04-02T12:03:58.094Z,13.40
2018-04-02T12:05:01.269Z,13.50
2018-04-02T12:06:05.281Z,13.80
2018-04-02T12:07:09.292Z,13.80
2018-04-02T12:08:12.571Z,13.80
2018-04-02T12:09:16.647Z,13.80
2018-04-02T12:10:19.817Z,13.80
2018-04-02T12:11:23.079Z,13.90
2018-04-02T12:12:26.277Z,13.80
2018-04-02T12:13:29.485Z,13.90
2018-04-02T12:14:33.481Z,14.00
2018-04-02T12:15:38.210Z,13.90
2018-04-02T12:16:41.424Z,14.00
2018-04-02T12:17:44.636Z,13.90
2018-04-02T12:18:47.846Z,13.90
2018-04-02T12:19:51.826Z,14.00
2018-04-02T12:20:56.578Z,14.10
2018-04-02T12:22:01.276Z,14.20
2018-04-02T12:23:04.579Z,14.20
2018-04-02T12:24:08.569Z,14.30
2018-04-02T12:25:12.571Z,14.40
2018-04-02T12:26:15.784Z,14.40
2018-04-02T12:27:19.027Z,14.40
2018-04-02T12:28:22.236Z,14.40
2018-04-02T12:29:26.194Z,14.30
2018-04-02T12:30:29.426Z,14.30
2018-04-02T12:31:32.719Z,14.20
2018-04-02T12:32:35.941Z,14.30
2018-04-02T12:33:39.152Z,14.40
2018-04-02T12:34:43.136Z,14.60
2018-04-02T12:35:47.115Z,14.70
2018-04-02T12:36:50.356Z,14.70
2018-04-02T12:37:53.641Z,14.80
2018-04-02T12:38:56.930Z,14.80
2018-04-02T12:40:00.144Z,14.80
2018-04-02T12:41:03.372Z,14.80
2018-04-02T12:42:07.358Z,14.80
2018-04-02T12:43:10.572Z,14.80
2018-04-02T12:44:13.785Z,14.80
2018-04-02T12:45:16.992Z,14.90
2018-04-02T12:46:20.214Z,14.90
2018-04-02T12:47:24.193Z,15.10
2018-04-02T12:48:27.399Z,15.10
2018-04-02T12:49:30.627Z,15.20
2018-04-02T12:50:33.866Z,15.30
2018-04-02T12:51:37.078Z,15.30
2018-04-02T12:52:40.305Z,15.50
2018-04-02T12:53:43.579Z,15.60
2018-04-02T12:54:46.757Z,15.70
2018-04-02T12:55:50.736Z,15.80
2018-04-02T12:56:53.982Z,15.80
2018-04-02T12:57:57.190Z,15.80
2018-04-02T12:59:00.414Z,15.70
2018-04-02T13:00:03.644Z,15.90
2018-04-02T13:01:06.839Z,16.00
2018-04-02T13:02:10.051Z,16.10
2018-04-02T13:03:13.273Z,16.20
2018-04-02T13:04:16.480Z,16.30
2018-04-02T13:05:19.712Z,16.30
2018-04-02T13:06:22.932Z,16.40
2018-04-02T13:07:26.151Z,16.50
2018-04-02T13:08:29.379Z,16.60
2018-04-02T13:09:33.365Z,16.80
2018-04-02T13:10:37.381Z,16.90
2018-04-02T13:11:40.617Z,16.90
2018-04-02T13:12:43.828Z,17.10
2018-04-02T13:13:47.804Z,17.20
2018-04-02T13:14:51.032Z,17.20
2018-04-02T13:15:55.022Z,17.30
2018-04-02T13:16:59.041Z,17.50
2018-04-02T13:18:02.340Z,17.50
2018-04-02T13:19:05.564Z,17.70
2018-04-02T13:20:08.762Z,17.80
2018-04-02T13:21:11.993Z,18.00
2018-04-02T13:22:15.199Z,18.00
2018-04-02T13:23:18.445Z,18.10
2018-04-02T13:24:21.646Z,18.20
2018-04-02T13:25:24.856Z,18.30
2018-04-02T13:26:28.186Z,18.30
2018-04-02T13:27:31.407Z,18.40
2018-04-02T13:28:34.605Z,18.40
2018-04-02T13:29:37.924Z,18.50
2018-04-02T13:30:41.919Z,18.60
2018-04-02T13:31:45.882Z,18.60
2018-04-02T13:32:49.109Z,18.60
2018-04-02T13:33:53.088Z,18.40
2018-04-02T13:34:56.411Z,18.40
2018-04-02T13:35:59.624Z,18.40
2018-04-02T13:37:02.854Z,18.40
2018-04-02T13:38:06.830Z,19.00
2018-04-02T13:39:10.861Z,19.20
2018-04-02T13:40:14.858Z,19.30
2018-04-02T13:41:18.843Z,19.40
2018-04-02T13:42:22.038Z,19.40
2018-04-02T13:43:26.056Z,19.70
2018-04-02T13:44:30.103Z,19.80
2018-04-02T13:45:33.316Z,19.80
2018-04-02T13:46:36.526Z,20.00
2018-04-02T13:47:39.747Z,20.20
2018-04-02T13:48:42.961Z,20.40
2018-04-02T13:49:46.938Z,20.60
2018-04-02T13:50:50.156Z,20.60
2018-04-02T13:51:54.127Z,20.60
2018-04-02T13:52:57.351Z,20.60
2018-04-02T13:54:00.560Z,20.50
2018-04-02T13:55:03.772Z,20.50
2018-04-02T13:56:06.976Z,20.60